createdAt,value
2022-11-05T00:00:17.955Z,11.37
2022-11-05T00:01:17.954Z,11.35
2022-11-05T00:02:17.930Z,11.36
2022-11-05T00:03:18.055Z,11.39
2022-11-05T00:04:17.925Z,11.33
2022-11-05T00:05:17.977Z,11.37
2022-11-05T00:06:17.977Z,11.32
2022-11-05T00:07:17.933Z,11.37
2022-11-05T00:08:17.935Z,11.27
2022-11-05T00:09:17.935Z,11.25
2022-11-05T00:10:17.943Z,11.24
2022-11-05T00:11:18.524Z,11.27
2022-11-05T00:12:17.940Z,11.40
2022-11-05T00:13:17.935Z,11.39
2022-11-05T00:14:17.924Z,11.39
2022-11-05T00:15:17.925Z,11.36
2022-11-05T00:16:17.967Z,11.33
2022-11-05T00:17:17.928Z,11.39
2022-11-05T00:18:17.926Z,11.39
2022-11-05T00:19:18.004Z,11.42
2022-11-05T00:20:17.952Z,11.33
2022-11-05T00:21:17.911Z,11.36
2022-11-05T00:22:17.964Z,11.37
2022-11-05T00:25:00.426Z,11.42
2022-11-05T00:26:00.423Z,11.46
2022-11-05T00:27:00.422Z,11.47
2022-11-05T00:28:00.425Z,11.43
2022-11-05T00:29:00.412Z,11.37
2022-11-05T00:30:00.427Z,11.39
2022-11-05T00:31:00.420Z,11.43
2022-11-05T00:32:00.417Z,11.40
2022-11-05T00:33:00.433Z,11.40
2022-11-05T00:34:00.413Z,11.46
2022-11-05T00:35:00.497Z,11.44
2022-11-05T00:36:00.411Z,11.42
2022-11-05T00:37:00.407Z,11.46
2022-11-05T00:38:00.416Z,11.44
2022-11-05T00:39:00.417Z,11.46
2022-11-05T00:40:00.402Z,11.40
2022-11-05T00:41:00.402Z,11.44
2022-11-05T00:42:00.413Z,11.44
2022-11-05T00:43:00.420Z,11.46
2022-11-05T00:44:00.400Z,11.40
2022-11-05T00:45:00.412Z,11.44
2022-11-05T00:46:00.396Z,11.52
2022-11-05T00:47:00.399Z,11.47
2022-11-05T00:48:00.407Z,11.42
2022-11-05T00:49:00.404Z,11.44
2022-11-05T00:50:00.419Z,11.47
2022-11-05T00:51:00.420Z,11.44
2022-11-05T00:52:00.408Z,11.51
2022-11-05T00:53:00.409Z,11.46
2022-11-05T00:54:00.400Z,11.47
2022-11-05T00:55:00.417Z,11.49
2022-11-05T00:56:00.384Z,11.46
2022-11-05T00:57:04.492Z,11.44
2022-11-05T00:58:00.392Z,11.46
2022-11-05T00:59:00.380Z,11.44
2022-11-05T01:00:00.380Z,11.44
2022-11-05T01:01:00.393Z,11.49
2022-11-05T01:02:00.518Z,11.42
2022-11-05T01:03:00.377Z,11.42
2022-11-05T01:04:00.383Z,11.44
2022-11-05T01:05:00.393Z,11.42
2022-11-05T01:06:00.388Z,11.40
2022-11-05T01:07:00.384Z,11.39
2022-11-05T01:08:00.377Z,11.39
2022-11-05T01:09:00.366Z,11.36
2022-11-05T01:10:00.399Z,11.35
2022-11-05T01:11:00.380Z,11.39
2022-11-05T01:12:00.368Z,11.27
2022-11-05T01:13:00.371Z,11.25
2022-11-05T01:14:00.373Z,11.28
2022-11-05T01:15:00.381Z,11.25
2022-11-05T01:16:00.385Z,11.21
2022-11-05T01:17:00.368Z,11.18
2022-11-05T01:18:00.364Z,11.11
2022-11-05T01:19:00.362Z,11.18
2022-11-05T01:20:00.368Z,11.21
2022-11-05T01:21:00.358Z,11.25
2022-11-05T01:22:00.382Z,11.17
2022-11-05T01:23:00.369Z,11.25
2022-11-05T01:24:00.361Z,11.17
2022-11-05T01:25:00.412Z,11.15
2022-11-05T01:26:00.349Z,11.18
2022-11-05T01:27:00.357Z,11.19
2022-11-05T01:28:00.361Z,11.22
2022-11-05T01:29:00.615Z,11.17
2022-11-05T01:30:00.340Z,11.15
2022-11-05T01:31:00.352Z,11.18
2022-11-05T01:32:00.343Z,11.15
2022-11-05T01:33:00.364Z,11.19
2022-11-05T01:34:00.349Z,11.18
2022-11-05T01:35:00.353Z,11.18
2022-11-05T01:36:00.349Z,11.14
2022-11-05T01:37:00.369Z,11.15
2022-11-05T01:38:00.344Z,11.22
2022-11-05T01:39:00.349Z,11.18
2022-11-05T01:40:00.326Z,11.22
2022-11-05T01:41:00.337Z,11.15
2022-11-05T01:42:00.329Z,11.24
2022-11-05T01:43:00.355Z,11.22
2022-11-05T01:44:00.361Z,11.17
2022-11-05T01:45:00.354Z,11.24
2022-11-05T01:46:00.317Z,11.11
2022-11-05T01:47:00.334Z,11.22
2022-11-05T01:48:00.362Z,11.17
2022-11-05T01:49:03.328Z,11.18
2022-11-05T01:50:00.352Z,11.18
2022-11-05T01:51:00.324Z,11.17
2022-11-05T01:52:00.338Z,11.21
2022-11-05T01:53:00.343Z,11.07
2022-11-05T01:54:00.320Z,11.09
2022-11-05T01:55:00.361Z,11.11
2022-11-05T01:56:00.380Z,11.15
2022-11-05T01:57:00.306Z,11.09
2022-11-05T01:58:00.322Z,11.00
2022-11-05T01:59:00.314Z,11.04
2022-11-05T02:00:00.321Z,11.09
2022-11-05T02:01:00.326Z,11.11
2022-11-05T02:02:01.855Z,11.06
2022-11-05T02:03:00.388Z,11.06
2022-11-05T02:04:00.329Z,11.03
2022-11-05T02:05:00.298Z,11.03
2022-11-05T02:06:00.305Z,11.07
2022-11-05T02:07:00.317Z,11.04
2022-11-05T02:08:00.321Z,11.03
2022-11-05T02:09:00.301Z,11.06
2022-11-05T02:10:00.290Z,11.02
2022-11-05T02:11:00.289Z,11.15
2022-11-05T02:12:00.313Z,11.03
2022-11-05T02:13:00.313Z,10.99
2022-11-05T02:14:00.293Z,10.99
2022-11-05T02:15:00.284Z,10.99
2022-11-05T02:16:00.296Z,11.03
2022-11-05T02:17:00.294Z,10.99
2022-11-05T02:18:00.304Z,11.02
2022-11-05T02:19:00.293Z,10.89
2022-11-05T02:20:00.283Z,10.91
2022-11-05T02:21:00.286Z,10.89
2022-11-05T02:22:00.302Z,10.89
2022-11-05T02:23:00.284Z,10.96
2022-11-05T02:24:00.283Z,10.89
2022-11-05T02:25:00.273Z,10.89
2022-11-05T02:26:00.276Z,10.86
2022-11-05T02:27:00.272Z,10.92
2022-11-05T02:28:00.298Z,10.89
2022-11-05T02:29:00.274Z,10.84
2022-11-05T02:30:00.268Z,10.92
2022-11-05T02:31:00.272Z,10.86
2022-11-05T02:32:00.259Z,10.89
2022-11-05T02:33:00.282Z,10.81
2022-11-05T02:34:00.284Z,10.76
2022-11-05T02:35:00.256Z,10.76
2022-11-05T02:36:00.253Z,10.79
2022-11-05T02:37:00.251Z,10.81
2022-11-05T02:38:00.260Z,10.82
2022-11-05T02:39:00.267Z,10.82
2022-11-05T02:40:00.271Z,10.76
2022-11-05T02:41:00.246Z,10.74
2022-11-05T02:42:04.766Z,10.79
2022-11-05T02:43:00.333Z,10.76
2022-11-05T02:44:00.247Z,10.79
2022-11-05T02:45:00.254Z,10.78
2022-11-05T02:46:00.246Z,10.82
2022-11-05T02:47:00.265Z,10.70
2022-11-05T02:48:00.247Z,10.73
2022-11-05T02:49:00.264Z,10.76
2022-11-05T02:50:00.269Z,10.73
2022-11-05T02:51:00.234Z,10.73
2022-11-05T02:52:00.246Z,10.71
2022-11-05T02:53:00.236Z,10.71
2022-11-05T02:54:00.239Z,10.67
2022-11-05T02:55:00.260Z,10.68
2022-11-05T02:56:00.243Z,10.68
2022-11-05T02:57:00.233Z,10.68
2022-11-05T02:58:00.233Z,10.61
2022-11-05T02:59:00.216Z,10.64
2022-11-05T03:00:00.255Z,10.67
2022-11-05T03:01:00.230Z,10.64
2022-11-05T03:02:00.404Z,10.71
2022-11-05T03:03:00.318Z,10.67
2022-11-05T03:04:00.211Z,10.71
2022-11-05T03:05:00.216Z,10.71
2022-11-05T03:06:00.217Z,10.66
2022-11-05T03:07:00.230Z,10.63
2022-11-05T03:08:00.207Z,10.68
2022-11-05T03:09:00.215Z,10.64
2022-11-05T03:10:00.206Z,10.64
2022-11-05T03:11:00.212Z,10.71
2022-11-05T03:12:00.210Z,10.64
2022-11-05T03:13:00.207Z,10.66
2022-11-05T03:14:00.233Z,10.71
2022-11-05T03:15:00.223Z,10.64
2022-11-05T03:16:00.197Z,10.71
2022-11-05T03:17:00.205Z,10.68
2022-11-05T03:18:00.205Z,10.74
2022-11-05T03:19:00.191Z,10.73
2022-11-05T03:20:00.207Z,10.66
2022-11-05T03:21:00.203Z,10.68
2022-11-05T03:22:00.202Z,10.67
2022-11-05T03:23:00.184Z,10.71
2022-11-05T03:24:00.181Z,10.67
2022-11-05T03:25:00.200Z,10.73
2022-11-05T03:26:00.176Z,10.64
2022-11-05T03:27:00.189Z,10.70
2022-11-05T03:28:00.185Z,10.74
2022-11-05T03:29:00.201Z,10.68
2022-11-05T03:30:00.192Z,10.76
2022-11-05T03:31:00.196Z,10.76
2022-11-05T03:32:00.169Z,10.81
2022-11-05T03:33:00.179Z,10.78
2022-11-05T03:34:00.181Z,10.78
2022-11-05T03:35:00.181Z,10.79
2022-11-05T03:36:00.175Z,10.76
2022-11-05T03:37:00.178Z,10.74
2022-11-05T03:38:00.175Z,10.79
2022-11-05T03:39:00.155Z,10.73
2022-11-05T03:40:00.191Z,10.84
2022-11-05T03:41:00.164Z,10.82
2022-11-05T03:42:00.171Z,10.79
2022-11-05T03:43:00.151Z,10.78
2022-11-05T03:44:00.155Z,10.79
2022-11-05T03:45:00.165Z,10.74
2022-11-05T03:46:00.153Z,10.73
2022-11-05T03:47:00.158Z,10.81
2022-11-05T03:48:00.160Z,10.67
2022-11-05T03:49:00.268Z,10.61
2022-11-05T03:50:00.186Z,10.73
2022-11-05T03:51:00.147Z,10.66
2022-11-05T03:52:00.167Z,10.67
2022-11-05T03:53:00.164Z,10.63
2022-11-05T03:54:00.153Z,10.68
2022-11-05T03:55:00.138Z,10.64
2022-11-05T03:56:00.131Z,10.74
2022-11-05T03:57:00.141Z,10.73
2022-11-05T03:58:00.153Z,10.68
2022-11-05T03:59:00.135Z,10.70
2022-11-05T04:00:00.125Z,10.70
2022-11-05T04:01:00.129Z,10.71
2022-11-05T04:02:00.225Z,10.71
2022-11-05T04:03:00.247Z,10.66
2022-11-05T04:04:00.129Z,10.70
2022-11-05T04:05:00.119Z,10.76
2022-11-05T04:06:00.121Z,10.79
2022-11-05T04:07:00.129Z,10.71
2022-11-05T04:08:00.133Z,10.71
2022-11-05T04:09:00.112Z,10.66
2022-11-05T04:10:00.136Z,10.70
2022-11-05T04:11:00.143Z,10.71
2022-11-05T04:12:00.108Z,10.64
2022-11-05T04:13:00.114Z,10.68
2022-11-05T04:14:00.127Z,10.64
2022-11-05T04:15:00.130Z,10.78
2022-11-05T04:16:00.121Z,10.64
2022-11-05T04:17:00.128Z,10.67
2022-11-05T04:18:00.109Z,10.73
2022-11-05T04:19:00.115Z,10.68
2022-11-05T04:20:00.128Z,10.73
2022-11-05T04:21:00.094Z,10.68
2022-11-05T04:22:00.112Z,10.78
2022-11-05T04:23:00.102Z,10.66
2022-11-05T04:24:00.118Z,10.71
2022-11-05T04:25:00.123Z,10.67
2022-11-05T04:26:00.091Z,10.67
2022-11-05T04:27:00.091Z,10.68
2022-11-05T04:28:00.093Z,10.61
2022-11-05T04:29:03.859Z,10.59
2022-11-05T04:30:00.106Z,10.60
2022-11-05T04:31:00.099Z,10.61
2022-11-05T04:32:00.092Z,10.59
2022-11-05T04:33:00.094Z,10.53
2022-11-05T04:34:00.083Z,10.51
2022-11-05T04:35:00.175Z,10.52
2022-11-05T04:36:00.087Z,10.41
2022-11-05T04:37:00.088Z,10.51
2022-11-05T04:38:00.096Z,10.44
2022-11-05T04:39:00.084Z,10.32
2022-11-05T04:40:00.096Z,10.40
2022-11-05T04:41:00.089Z,10.34
2022-11-05T04:42:00.067Z,10.42
2022-11-05T04:43:00.080Z,10.26
2022-11-05T04:44:00.068Z,10.34
2022-11-05T04:45:00.078Z,10.30
2022-11-05T04:46:00.082Z,10.29
2022-11-05T04:47:00.073Z,10.38
2022-11-05T04:48:00.054Z,10.38
2022-11-05T04:49:00.078Z,10.32
2022-11-05T04:50:00.053Z,10.32
2022-11-05T04:51:03.270Z,10.36
2022-11-05T04:52:00.075Z,10.30
2022-11-05T04:53:00.050Z,10.41
2022-11-05T04:54:00.043Z,10.40
2022-11-05T04:55:00.061Z,10.30
2022-11-05T04:56:00.051Z,10.40
2022-11-05T04:57:00.061Z,10.36
2022-11-05T04:58:00.046Z,10.41
2022-11-05T04:59:00.049Z,10.38
2022-11-05T05:00:00.043Z,10.34
2022-11-05T05:01:00.094Z,10.38
2022-11-05T05:02:00.053Z,10.36
2022-11-05T05:03:00.039Z,10.30
2022-11-05T05:04:00.031Z,10.34
2022-11-05T05:05:00.034Z,10.32
2022-11-05T05:06:03.802Z,10.36
2022-11-05T05:07:00.050Z,10.29
2022-11-05T05:08:00.051Z,10.33
2022-11-05T05:09:00.021Z,10.27
2022-11-05T05:10:00.031Z,10.45
2022-11-05T05:11:00.056Z,10.44
2022-11-05T05:12:00.035Z,10.30
2022-11-05T05:13:00.027Z,10.29
2022-11-05T05:14:00.018Z,10.29
2022-11-05T05:15:00.020Z,10.30
2022-11-05T05:16:00.025Z,10.30
2022-11-05T05:17:00.024Z,10.33
2022-11-05T05:18:00.022Z,10.30
2022-11-05T05:19:00.013Z,10.30
2022-11-05T05:20:00.013Z,10.20
2022-11-05T05:21:00.003Z,10.30
2022-11-05T05:22:00.031Z,10.40
2022-11-05T05:23:00.000Z,10.30
2022-11-05T05:24:00.001Z,10.33
2022-11-05T05:24:59.998Z,10.32
2022-11-05T05:26:00.007Z,10.32
2022-11-05T05:27:00.001Z,10.33
2022-11-05T05:28:00.010Z,10.33
2022-11-05T05:29:00.005Z,10.33
2022-11-05T05:30:00.008Z,10.33
2022-11-05T05:30:59.986Z,10.32
2022-11-05T05:31:59.987Z,10.34
2022-11-05T05:32:59.981Z,10.26
2022-11-05T05:33:59.994Z,10.38
2022-11-05T05:35:00.006Z,10.36
2022-11-05T05:35:59.979Z,10.33
2022-11-05T05:36:59.977Z,10.25
2022-11-05T05:37:59.973Z,10.27
2022-11-05T05:38:59.990Z,10.26
2022-11-05T05:40:00.009Z,10.25
2022-11-05T05:40:59.978Z,10.25
2022-11-05T05:41:59.979Z,10.17
2022-11-05T05:42:59.966Z,10.15
2022-11-05T05:43:59.979Z,10.14
2022-11-05T05:44:59.975Z,10.22
2022-11-05T05:45:59.980Z,10.15
2022-11-05T05:47:00.018Z,10.05
2022-11-05T05:47:59.957Z,10.02
2022-11-05T05:48:59.978Z,10.07
2022-11-05T05:49:59.966Z,10.04
2022-11-05T05:50:59.980Z,10.02
2022-11-05T05:51:59.961Z,10.07
2022-11-05T05:52:59.973Z,10.09
2022-11-05T05:53:59.948Z,10.05
2022-11-05T05:54:59.956Z,10.07
2022-11-05T05:55:59.946Z,10.11
2022-11-05T05:56:59.942Z,10.01
2022-11-05T05:57:59.960Z,9.97
2022-11-05T05:58:59.941Z,10.04
2022-11-05T05:59:59.940Z,10.08
2022-11-05T06:00:59.960Z,10.05
2022-11-05T06:02:00.045Z,10.04
2022-11-05T06:03:00.027Z,10.08
2022-11-05T06:03:59.944Z,10.08
2022-11-05T06:04:59.939Z,10.08
2022-11-05T06:05:59.962Z,10.09
2022-11-05T06:06:59.937Z,10.04
2022-11-05T06:07:59.954Z,10.07
2022-11-05T06:08:59.935Z,10.02
2022-11-05T06:09:59.936Z,10.08
2022-11-05T06:10:59.985Z,10.01
2022-11-05T06:11:59.926Z,10.04
2022-11-05T06:12:59.931Z,10.01
2022-11-05T06:13:59.927Z,10.01
2022-11-05T06:14:59.939Z,10.04
2022-11-05T06:15:59.931Z,10.04
2022-11-05T06:16:59.907Z,9.93
2022-11-05T06:17:59.919Z,9.99
2022-11-05T06:18:59.923Z,9.97
2022-11-05T06:19:59.904Z,9.99
2022-11-05T06:20:59.913Z,9.94
2022-11-05T06:21:59.899Z,9.97
2022-11-05T06:22:59.906Z,9.99
2022-11-05T06:23:59.923Z,9.99
2022-11-05T06:24:59.896Z,9.97
2022-11-05T06:25:59.895Z,10.02
2022-11-05T06:26:59.905Z,10.01
2022-11-05T06:27:59.901Z,10.01
2022-11-05T06:28:59.915Z,9.96
2022-11-05T06:29:59.887Z,9.97
2022-11-05T06:30:59.898Z,9.93
2022-11-05T06:31:59.913Z,9.93
2022-11-05T06:32:59.898Z,9.94
2022-11-05T06:33:59.888Z,9.90
2022-11-05T06:34:59.894Z,9.91
2022-11-05T06:35:59.883Z,9.96
2022-11-05T06:36:59.916Z,9.97
2022-11-05T06:37:59.884Z,9.99
2022-11-05T06:38:59.888Z,9.91
2022-11-05T06:39:59.926Z,9.94
2022-11-05T06:40:59.874Z,9.89
2022-11-05T06:42:59.865Z,9.87
2022-11-05T06:43:59.904Z,9.86
2022-11-05T06:44:59.869Z,9.84
2022-11-05T06:45:59.870Z,9.89
2022-11-05T06:46:59.864Z,9.83
2022-11-05T06:47:59.860Z,9.79
2022-11-05T06:48:59.860Z,9.87
2022-11-05T06:49:59.877Z,9.79
2022-11-05T06:50:59.848Z,9.83
2022-11-05T06:51:59.863Z,9.79
2022-11-05T06:52:59.873Z,9.76
2022-11-05T06:53:59.853Z,9.83
2022-11-05T06:54:59.854Z,9.86
2022-11-05T06:55:59.848Z,9.86
2022-11-05T06:56:59.845Z,9.86
2022-11-05T06:57:59.842Z,9.68
2022-11-05T06:58:59.858Z,9.79
2022-11-05T07:00:03.292Z,9.74
2022-11-05T07:00:59.926Z,9.86
2022-11-05T07:01:59.897Z,9.89
2022-11-05T07:02:59.862Z,9.87
2022-11-05T07:03:59.824Z,9.79
2022-11-05T07:04:59.826Z,9.87
2022-11-05T07:05:59.831Z,9.83
2022-11-05T07:06:59.860Z,9.83
2022-11-05T07:07:59.824Z,9.83
2022-11-05T07:08:59.829Z,9.86
2022-11-05T07:09:59.827Z,9.87
2022-11-05T07:10:59.830Z,9.89
2022-11-05T07:11:59.815Z,9.86
2022-11-05T07:13:03.729Z,9.86
2022-11-05T07:13:59.821Z,9.86
2022-11-05T07:14:59.827Z,9.86
2022-11-05T07:15:59.817Z,9.87
2022-11-05T07:16:59.811Z,9.90
2022-11-05T07:17:59.805Z,9.78
2022-11-05T07:18:59.817Z,9.84
2022-11-05T07:19:59.808Z,9.90
2022-11-05T07:20:59.825Z,9.90
2022-11-05T07:21:59.795Z,9.87
2022-11-05T07:22:59.807Z,9.89
2022-11-05T07:23:59.801Z,9.86
2022-11-05T07:24:59.808Z,9.86
2022-11-05T07:25:59.799Z,9.74
2022-11-05T07:26:59.799Z,9.72
2022-11-05T07:27:59.807Z,9.71
2022-11-05T07:28:59.802Z,9.78
2022-11-05T07:29:59.787Z,9.75
2022-11-05T07:30:59.787Z,9.76
2022-11-05T07:31:59.777Z,9.79
2022-11-05T07:32:59.791Z,9.71
2022-11-05T07:33:59.771Z,9.83
2022-11-05T07:34:59.790Z,9.75
2022-11-05T07:35:59.788Z,9.89
2022-11-05T07:36:59.779Z,9.75
2022-11-05T07:37:59.785Z,9.75
2022-11-05T07:39:00.650Z,9.83
2022-11-05T07:39:59.774Z,9.83
2022-11-05T07:40:59.773Z,9.86
2022-11-05T07:41:59.769Z,9.86
2022-11-05T07:42:59.772Z,9.96
2022-11-05T07:43:59.766Z,10.08
2022-11-05T07:44:59.769Z,10.15
2022-11-05T07:45:59.762Z,10.22
2022-11-05T07:46:59.768Z,10.29
2022-11-05T07:47:59.757Z,10.29
2022-11-05T07:48:59.780Z,10.45
2022-11-05T07:49:59.786Z,10.42
2022-11-05T07:50:59.746Z,10.61
2022-11-05T07:51:59.744Z,10.71
2022-11-05T07:52:59.746Z,10.92
2022-11-05T07:53:59.753Z,11.11
2022-11-05T07:54:59.755Z,11.18
2022-11-05T07:55:59.736Z,11.36
2022-11-05T07:56:59.758Z,11.42
2022-11-05T07:57:59.739Z,11.46
2022-11-05T07:58:59.740Z,11.52
2022-11-05T07:59:59.755Z,11.54
2022-11-05T08:00:59.964Z,11.52
2022-11-05T08:01:59.964Z,11.54
2022-11-05T08:03:06.771Z,11.72
2022-11-05T08:03:59.730Z,11.76
2022-11-05T08:04:59.724Z,11.90
2022-11-05T08:05:59.744Z,12.02
2022-11-05T08:06:59.745Z,11.94
2022-11-05T08:07:59.726Z,12.01
2022-11-05T08:08:59.733Z,11.85
2022-11-05T08:09:59.730Z,11.60
2022-11-05T08:10:59.729Z,11.47
2022-11-05T08:12:02.892Z,11.43
2022-11-05T08:12:59.719Z,11.42
2022-11-05T08:13:59.725Z,11.47
2022-11-05T08:14:59.713Z,11.39
2022-11-05T08:15:59.742Z,11.40
2022-11-05T08:16:59.721Z,11.44
2022-11-05T08:17:59.718Z,11.44
2022-11-05T08:18:59.710Z,11.52
2022-11-05T08:19:59.721Z,11.51
2022-11-05T08:20:59.718Z,11.35
2022-11-05T08:21:59.730Z,11.29
2022-11-05T08:22:59.721Z,11.22
2022-11-05T08:23:59.717Z,11.17
2022-11-05T08:25:05.586Z,11.15
2022-11-05T08:25:59.713Z,11.28
2022-11-05T08:26:59.728Z,11.47
2022-11-05T08:27:59.701Z,11.42
2022-11-05T08:28:59.708Z,11.47
2022-11-05T08:29:59.721Z,11.52
2022-11-05T08:30:59.695Z,11.52
2022-11-05T08:31:59.736Z,11.51
2022-11-05T08:32:59.694Z,11.60
2022-11-05T08:34:02.468Z,11.69
2022-11-05T08:34:59.693Z,11.95
2022-11-05T08:35:59.692Z,12.02
2022-11-05T08:36:59.703Z,12.01
2022-11-05T08:37:59.697Z,12.13
2022-11-05T08:38:59.721Z,12.05
2022-11-05T08:39:59.716Z,12.17
2022-11-05T08:40:59.688Z,12.12
2022-11-05T08:41:59.704Z,12.14
2022-11-05T08:42:59.685Z,12.14
2022-11-05T08:43:59.695Z,12.17
2022-11-05T08:44:59.709Z,12.16
2022-11-05T08:45:59.690Z,12.09
2022-11-05T08:46:59.693Z,12.19
2022-11-05T08:47:59.694Z,12.17
2022-11-05T08:48:59.680Z,12.17
2022-11-05T08:49:59.695Z,12.16
2022-11-05T08:50:59.793Z,12.01
2022-11-05T08:51:59.690Z,12.01
2022-11-05T08:52:59.718Z,12.01
2022-11-05T08:53:59.677Z,12.19
2022-11-05T08:54:59.689Z,12.21
2022-11-05T08:55:59.724Z,12.29
2022-11-05T08:56:59.671Z,12.34
2022-11-05T08:57:59.698Z,12.28
2022-11-05T08:58:59.688Z,12.31
2022-11-05T08:59:59.681Z,12.34
2022-11-05T09:01:04.799Z,12.37
2022-11-05T09:01:59.827Z,12.47
2022-11-05T09:02:59.697Z,12.53
2022-11-05T09:03:59.671Z,12.56
2022-11-05T09:04:59.675Z,12.64
2022-11-05T09:05:59.672Z,12.41
2022-11-05T09:06:59.684Z,12.46
2022-11-05T09:08:01.557Z,12.47
2022-11-05T09:08:59.675Z,12.50
2022-11-05T09:09:59.684Z,12.46
2022-11-05T09:10:59.685Z,12.47
2022-11-05T09:12:12.306Z,12.49
2022-11-05T09:12:59.697Z,12.56
2022-11-05T09:13:59.665Z,12.64
2022-11-05T09:14:59.687Z,12.56
2022-11-05T09:15:59.673Z,12.68
2022-11-05T09:16:59.672Z,12.79
2022-11-05T09:17:59.679Z,12.79
2022-11-05T09:18:59.664Z,12.87
2022-11-05T09:19:59.668Z,12.95
2022-11-05T09:20:59.679Z,13.05
2022-11-05T09:21:59.771Z,13.14
2022-11-05T09:22:59.670Z,13.29
2022-11-05T09:23:59.670Z,13.38
2022-11-05T09:24:59.674Z,13.26
2022-11-05T09:25:59.668Z,13.45
2022-11-05T09:26:59.658Z,13.62
2022-11-05T09:27:59.667Z,13.75
2022-11-05T09:28:59.693Z,13.70
2022-11-05T09:29:59.689Z,13.75
2022-11-05T09:30:59.668Z,13.69
2022-11-05T09:31:59.654Z,13.77
2022-11-05T09:32:59.656Z,13.84
2022-11-05T09:33:59.654Z,13.79
2022-11-05T09:34:59.672Z,13.79
2022-11-05T09:35:59.653Z,13.84
2022-11-05T09:36:59.663Z,13.87
2022-11-05T09:38:01.108Z,13.81
2022-11-05T09:38:59.681Z,13.88
2022-11-05T09:39:59.651Z,13.81
2022-11-05T09:40:59.654Z,13.75
2022-11-05T09:41:59.654Z,13.87
2022-11-05T09:42:59.674Z,13.75
2022-11-05T09:43:59.665Z,13.75
2022-11-05T09:44:59.676Z,13.78
2022-11-05T09:45:59.673Z,13.92
2022-11-05T09:46:59.657Z,14.10
2022-11-05T09:47:59.661Z,14.32
2022-11-05T09:48:59.656Z,14.33
2022-11-05T09:49:59.656Z,14.28
2022-11-05T09:50:59.670Z,14.22
2022-11-05T09:51:59.682Z,14.04
2022-11-05T09:52:59.668Z,14.02
2022-11-05T09:53:59.669Z,14.12
2022-11-05T09:54:59.692Z,14.04
2022-11-05T09:55:59.682Z,14.03
2022-11-05T09:56:59.665Z,14.06
2022-11-05T09:57:59.660Z,14.03
2022-11-05T09:58:59.670Z,14.18
2022-11-05T09:59:59.668Z,14.21
2022-11-05T10:00:59.760Z,14.27
2022-11-05T10:01:59.756Z,14.32
2022-11-05T10:02:59.680Z,14.27
2022-11-05T10:03:59.679Z,14.28
2022-11-05T10:05:02.501Z,14.29
2022-11-05T10:05:59.672Z,14.45
2022-11-05T10:06:59.665Z,14.43
2022-11-05T10:07:59.677Z,14.52
2022-11-05T10:08:59.690Z,14.61
2022-11-05T10:09:59.668Z,14.73
2022-11-05T10:10:59.677Z,14.75
2022-11-05T10:11:59.665Z,14.96
2022-11-05T10:12:59.685Z,15.29
2022-11-05T10:13:59.699Z,15.47
2022-11-05T10:14:59.676Z,15.72
2022-11-05T10:15:59.688Z,15.78
2022-11-05T10:16:59.676Z,15.92
2022-11-05T10:17:59.688Z,16.04
2022-11-05T10:18:59.696Z,16.11
2022-11-05T10:19:59.682Z,16.07
2022-11-05T10:20:59.687Z,16.20
2022-11-05T10:22:06.505Z,16.33
2022-11-05T10:22:59.700Z,16.45
2022-11-05T10:23:59.723Z,16.49
2022-11-05T10:24:59.713Z,16.61
2022-11-05T10:25:59.715Z,16.78
2022-11-05T10:26:59.724Z,16.81
2022-11-05T10:27:59.711Z,16.76
2022-11-05T10:28:59.728Z,16.61
2022-11-05T10:29:59.724Z,16.50
2022-11-05T10:30:59.724Z,16.35
2022-11-05T10:31:59.744Z,16.11
2022-11-05T10:32:59.717Z,16.09
2022-11-05T10:33:59.739Z,15.96
2022-11-05T10:34:59.759Z,16.07
2022-11-05T10:35:59.735Z,16.09
2022-11-05T10:36:59.724Z,16.05
2022-11-05T10:37:59.727Z,16.01
2022-11-05T10:38:59.732Z,15.94
2022-11-05T10:39:59.738Z,15.93
2022-11-05T10:40:59.755Z,16.04
2022-11-05T10:41:59.749Z,15.96
2022-11-05T10:42:59.750Z,15.80
2022-11-05T10:43:59.736Z,15.76
2022-11-05T10:44:59.766Z,15.72
2022-11-05T10:45:59.757Z,15.60
2022-11-05T10:46:59.777Z,15.57
2022-11-05T10:47:59.756Z,15.47
2022-11-05T10:48:59.768Z,15.36
2022-11-05T10:49:59.770Z,15.39
2022-11-05T10:50:59.762Z,15.21
2022-11-05T10:51:59.760Z,15.29
2022-11-05T10:52:59.751Z,15.36
2022-11-05T10:54:02.072Z,15.32
2022-11-05T10:54:59.763Z,15.38
2022-11-05T10:55:59.774Z,15.53
2022-11-05T10:56:59.836Z,15.62
2022-11-05T10:57:59.755Z,15.90
2022-11-05T10:58:59.764Z,16.00
2022-11-05T10:59:59.827Z,16.00
2022-11-05T11:00:59.812Z,16.09
2022-11-05T11:02:00.179Z,16.45
2022-11-05T11:02:59.773Z,16.45
2022-11-05T11:03:59.777Z,16.61
2022-11-05T11:04:59.781Z,16.81
2022-11-05T11:05:59.769Z,16.97
2022-11-05T11:06:59.828Z,17.15
2022-11-05T11:07:59.790Z,17.21
2022-11-05T11:08:59.784Z,17.34
2022-11-05T11:09:59.775Z,17.28
2022-11-05T11:10:59.772Z,17.34
2022-11-05T11:11:59.777Z,17.30
2022-11-05T11:12:59.785Z,17.30
2022-11-05T11:13:59.810Z,17.41
2022-11-05T11:14:59.838Z,17.41
2022-11-05T11:15:59.789Z,17.62
2022-11-05T11:16:59.853Z,17.54
2022-11-05T11:17:59.811Z,17.56
2022-11-05T11:18:59.804Z,17.70
2022-11-05T11:20:01.803Z,17.77
2022-11-05T11:20:59.822Z,17.70
2022-11-05T11:21:59.862Z,17.82
2022-11-05T11:22:59.800Z,17.97
2022-11-05T11:24:00.349Z,18.02
2022-11-05T11:24:59.826Z,18.11
2022-11-05T11:25:59.838Z,18.14
2022-11-05T11:26:59.807Z,18.00
2022-11-05T11:27:59.831Z,18.11
2022-11-05T11:28:59.824Z,18.02
2022-11-05T11:29:59.932Z,17.87
2022-11-05T11:30:59.846Z,17.75
2022-11-05T11:31:59.865Z,17.79
2022-11-05T11:32:59.823Z,17.66
2022-11-05T11:33:59.827Z,17.75
2022-11-05T11:34:59.829Z,17.97
2022-11-05T11:35:59.890Z,18.10
2022-11-05T11:36:59.914Z,17.93
2022-11-05T11:37:59.849Z,17.97
2022-11-05T11:38:59.850Z,17.79
2022-11-05T11:40:02.330Z,17.77
2022-11-05T11:40:59.873Z,17.71
2022-11-05T11:42:01.832Z,17.74
2022-11-05T11:42:59.851Z,17.59
2022-11-05T11:43:59.851Z,17.71
2022-11-05T11:44:59.877Z,17.75
2022-11-05T11:46:05.404Z,17.89
2022-11-05T11:46:59.860Z,18.12
2022-11-05T11:48:00.826Z,18.14
2022-11-05T11:48:59.893Z,18.20
2022-11-05T11:49:59.892Z,18.30
2022-11-05T11:50:59.867Z,18.20
2022-11-05T11:51:59.864Z,18.23
2022-11-05T11:52:59.864Z,18.02
2022-11-05T11:53:59.921Z,17.62
2022-11-05T11:55:01.842Z,17.21
2022-11-05T11:56:00.883Z,17.11
2022-11-05T11:56:59.858Z,16.96
2022-11-05T11:57:59.984Z,16.64
2022-11-05T11:58:59.911Z,16.73
2022-11-05T12:00:08.780Z,16.48
2022-11-05T12:00:59.866Z,16.31
2022-11-05T12:02:00.076Z,16.17
2022-11-05T12:03:02.140Z,15.89
2022-11-05T12:03:59.899Z,15.60
2022-11-05T12:04:59.895Z,15.53
2022-11-05T12:06:01.333Z,15.43
2022-11-05T12:07:04.307Z,15.56
2022-11-05T12:08:02.314Z,15.89
2022-11-05T12:09:06.388Z,16.02
2022-11-05T12:10:03.385Z,16.14
2022-11-05T12:11:26.354Z,16.21
2022-11-05T12:11:59.933Z,16.04
2022-11-05T12:12:59.912Z,16.01
2022-11-05T12:14:02.849Z,15.87
2022-11-05T12:14:59.903Z,15.89
2022-11-05T12:15:59.901Z,16.00
2022-11-05T12:16:59.884Z,15.86
2022-11-05T12:17:59.882Z,15.83
2022-11-05T12:18:59.924Z,15.75
2022-11-05T12:19:59.903Z,15.71
2022-11-05T12:20:59.902Z,15.69
2022-11-05T12:21:59.995Z,15.60
2022-11-05T12:22:59.896Z,15.62
2022-11-05T12:23:59.896Z,15.62
2022-11-05T12:24:59.892Z,15.54
2022-11-05T12:25:59.989Z,15.65
2022-11-05T12:26:59.915Z,15.64
2022-11-05T12:27:59.887Z,15.62
2022-11-05T12:29:18.001Z,15.56
2022-11-05T12:29:59.901Z,15.60
2022-11-05T12:30:59.901Z,15.57
2022-11-05T12:31:59.889Z,15.57
2022-11-05T12:32:59.965Z,15.54
2022-11-05T12:33:59.904Z,15.47
2022-11-05T12:34:59.896Z,15.49
2022-11-05T12:35:59.902Z,15.44
2022-11-05T12:36:59.898Z,15.47
2022-11-05T12:37:59.903Z,15.46
2022-11-05T12:38:59.898Z,15.44
2022-11-05T12:39:59.890Z,15.43
2022-11-05T12:40:59.890Z,15.44
2022-11-05T12:41:59.892Z,15.39
2022-11-05T12:42:59.908Z,15.46
2022-11-05T12:43:59.912Z,15.41
2022-11-05T12:44:59.889Z,15.39
2022-11-05T12:45:59.891Z,15.20
2022-11-05T12:46:59.889Z,15.20
2022-11-05T12:47:59.916Z,15.06
2022-11-05T12:48:59.913Z,15.14
2022-11-05T12:49:59.904Z,14.96
2022-11-05T12:50:59.912Z,14.89
2022-11-05T12:51:59.895Z,14.89
2022-11-05T12:52:59.905Z,14.86
2022-11-05T12:53:59.896Z,14.92
2022-11-05T12:54:59.910Z,14.77
2022-11-05T12:55:59.901Z,14.72
2022-11-05T12:56:59.908Z,14.77
2022-11-05T12:57:59.915Z,14.65